Time;durP1;ratioP1;P1;durP2;ratioP2;P2;SDS_P1;SDS_P2;PMS_P1;PMS_P2;Temp;Humidity;BMP_temperature;BMP_pressure;BME280_temperature;BME280_humidity;BME280_pressure;Samples;Min_cycle;Max_cycle;Signal;HPM_P1;HPM_P2
2021/08/29 00:01:09;;;;;;;;;;;13.60;99.90;;;;;;5117293;28;19924;-86
2021/08/29 00:03:36;;;;;;;;;;;13.60;99.90;;;;;;5117157;28;19946;-86
2021/08/29 00:06:02;;;;;;;;;;;13.60;99.90;;;;;;5116856;28;20377;-86
2021/08/29 00:08:29;;;;;;;;;;;13.60;99.90;;;;;;5116952;28;20385;-85
2021/08/29 00:10:57;;;;;;;;;;;13.60;99.90;;;;;;5116960;28;19924;-86
2021/08/29 00:13:25;;;;;;;;;;;13.50;99.90;;;;;;5116881;28;19934;-86
2021/08/29 00:15:52;;;;;;;;;;;13.50;99.90;;;;;;5116642;28;19928;-86
2021/08/29 00:18:19;;;;;;;;;;;13.50;99.90;;;;;;5116684;28;19934;-86
2021/08/29 00:20:46;;;;;;;;;;;13.50;99.90;;;;;;5116773;28;19928;-86
2021/08/29 00:23:13;;;;;;;;;;;13.50;99.90;;;;;;5116605;28;19931;-86
2021/08/29 00:25:40;;;;;;;;;;;13.50;99.90;;;;;;5116713;28;19924;-85
2021/08/29 00:28:07;;;;;;;;;;;13.50;99.90;;;;;;5116375;28;20264;-86
2021/08/29 00:30:35;;;;;;;;;;;13.50;99.90;;;;;;5116460;28;20362;-85
2021/08/29 00:33:02;;;;;;;;;;;13.50;99.90;;;;;;5116358;28;19928;-86
2021/08/29 00:35:30;;;;;;;;;;;13.50;99.90;;;;;;5116356;28;19934;-86
2021/08/29 00:37:56;;;;;;;;;;;13.50;99.90;;;;;;5116286;28;19923;-86
2021/08/29 00:40:23;;;;;;;;;;;13.40;99.90;;;;;;5116256;28;19923;-86
2021/08/29 00:42:50;;;;;;;;;;;13.40;99.90;;;;;;5116489;28;20075;-86
2021/08/29 00:45:17;;;;;;;;;;;13.40;99.90;;;;;;5116237;28;19930;-86
2021/08/29 00:47:46;;;;;;;;;;;13.40;99.90;;;;;;5116406;28;19924;-86
2021/08/29 00:50:12;;;;;;;;;;;13.30;99.90;;;;;;5116238;28;19935;-86
2021/08/29 00:52:39;;;;;;;;;;;13.30;99.90;;;;;;5116009;28;19923;-85
2021/08/29 00:55:07;;;;;;;;;;;13.30;99.90;;;;;;5115971;28;19924;-86
2021/08/29 00:57:34;;;;;;;;;;;13.30;99.90;;;;;;5116014;28;19924;-86
2021/08/29 01:00:01;;;;;;;;;;;13.30;99.90;;;;;;5115603;28;19924;-86
2021/08/29 01:02:28;;;;;;;;;;;13.30;99.90;;;;;;5116056;28;19935;-86
2021/08/29 01:04:59;;;;;;;;;;;13.30;99.90;;;;;;5116023;28;19924;-86
2021/08/29 01:07:27;;;;;;;;;;;13.30;99.90;;;;;;5115856;28;19934;-87
2021/08/29 01:09:54;;;;;;;;;;;13.30;99.90;;;;;;5116038;28;19934;-86
2021/08/29 01:12:22;;;;;;;;;;;13.30;99.90;;;;;;5115825;28;19923;-86
2021/08/29 01:14:50;;;;;;;;;;;13.30;99.90;;;;;;5115745;28;19934;-86
2021/08/29 01:17:16;;;;;;;;;;;13.20;99.90;;;;;;5115650;28;20271;-86
2021/08/29 01:19:44;;;;;;;;;;;13.30;99.90;;;;;;5115632;28;19931;-86
2021/08/29 01:22:12;;;;;;;;;;;13.30;99.90;;;;;;5115691;28;20409;-86
2021/08/29 01:24:39;;;;;;;;;;;13.20;99.90;;;;;;5115581;28;19934;-86
2021/08/29 01:27:08;;;;;;;;;;;13.20;99.90;;;;;;5115608;28;19935;-86
2021/08/29 01:29:36;;;;;;;;;;;13.20;99.90;;;;;;5115458;28;19945;-86
2021/08/29 01:32:05;;;;;;;;;;;13.20;99.90;;;;;;5115687;28;19924;-86
2021/08/29 01:34:32;;;;;;;;;;;13.20;99.90;;;;;;5115546;28;20368;-86
2021/08/29 01:36:59;;;;;;;;;;;13.20;99.90;;;;;;5115577;28;19935;-86
2021/08/29 01:39:25;;;;;;;;;;;13.10;99.90;;;;;;5115534;28;19989;-86
2021/08/29 01:41:52;;;;;;;;;;;13.10;99.90;;;;;;5115500;28;19928;-86
2021/08/29 01:44:19;;;;;;;;;;;13.10;99.90;;;;;;5115636;28;19924;-86
2021/08/29 01:46:47;;;;;;;;;;;13.10;99.90;;;;;;5115649;28;20332;-86
2021/08/29 01:49:14;;;;;;;;;;;13.00;99.90;;;;;;5115664;28;19924;-86
2021/08/29 01:51:41;;;;;;;;;;;13.00;99.90;;;;;;5115278;28;19924;-86
2021/08/29 01:54:08;;;;;;;;;;;13.00;99.90;;;;;;5115533;28;19935;-86
2021/08/29 01:56:50;;;;;;;;;;;13.00;99.90;;;;;;5115539;28;19924;-86
2021/08/29 01:59:16;;;;;;;;;;;13.00;99.90;;;;;;5115065;28;19931;-86
2021/08/29 02:01:43;;;;;;;;;;;12.90;99.90;;;;;;5115458;28;19924;-86
2021/08/29 02:04:12;;;;;;;;;;;12.90;99.90;;;;;;5115222;28;19930;-86
2021/08/29 02:06:39;;;;;;;;;;;12.90;99.90;;;;;;5115255;28;19923;-86
2021/08/29 02:09:07;;;;;;;;;;;12.80;99.90;;;;;;5115304;28;19924;-86
2021/08/29 02:11:34;;;;;;;;;;;12.90;99.90;;;;;;5116798;28;19934;-86
2021/08/29 02:14:02;;;;;;;;;;;12.90;99.90;;;;;;5119021;28;19934;-86
2021/08/29 02:16:29;;;;;;;;;;;12.80;99.90;;;;;;5119306;28;19934;-86
2021/08/29 02:18:56;;;;;;;;;;;12.80;99.90;;;;;;5119239;28;19924;-86
2021/08/29 02:21:26;;;;;;;;;;;12.80;99.90;;;;;;5119341;28;19927;-86
2021/08/29 02:23:53;;;;;;;;;;;12.80;99.90;;;;;;5119255;28;19924;-86
2021/08/29 02:26:22;;;;;;;;;;;12.80;99.90;;;;;;5119199;28;19930;-86
2021/08/29 02:28:49;;;;;;;;;;;12.80;99.90;;;;;;5118838;28;19923;-86
2021/08/29 02:31:17;;;;;;;;;;;12.70;99.90;;;;;;5118741;28;19928;-86
2021/08/29 02:33:44;;;;;;;;;;;12.70;99.90;;;;;;5118894;28;19924;-86
2021/08/29 02:36:10;;;;;;;;;;;12.70;99.90;;;;;;5118905;28;20267;-86
2021/08/29 02:38:39;;;;;;;;;;;12.60;99.90;;;;;;5118912;28;19924;-86
2021/08/29 02:41:05;;;;;;;;;;;12.60;99.90;;;;;;5118791;28;20357;-86
2021/08/29 02:43:32;;;;;;;;;;;12.50;99.90;;;;;;5118705;28;19940;-86
2021/08/29 02:45:59;;;;;;;;;;;12.50;99.90;;;;;;5118428;28;19932;-86
2021/08/29 02:48:26;;;;;;;;;;;12.50;99.90;;;;;;5118621;27;20256;-86
2021/08/29 02:50:53;;;;;;;;;;;12.50;99.90;;;;;;5118437;28;19927;-86
2021/08/29 02:53:20;;;;;;;;;;;12.50;99.90;;;;;;5118443;28;20233;-86
2021/08/29 02:55:48;;;;;;;;;;;12.50;99.90;;;;;;5118462;28;19923;-86
2021/08/29 02:58:15;;;;;;;;;;;12.50;99.90;;;;;;5118299;28;19930;-86
2021/08/29 03:00:42;;;;;;;;;;;12.40;99.90;;;;;;5118420;28;19928;-86
2021/08/29 03:03:09;;;;;;;;;;;12.50;99.90;;;;;;5118479;28;19924;-86
2021/08/29 03:05:36;;;;;;;;;;;12.50;99.90;;;;;;5118197;28;20251;-86
2021/08/29 03:08:03;;;;;;;;;;;12.40;99.90;;;;;;5118275;28;19928;-86
2021/08/29 03:10:30;;;;;;;;;;;12.40;99.90;;;;;;5118031;28;19923;-86
2021/08/29 03:12:58;;;;;;;;;;;12.40;99.90;;;;;;5118083;28;19923;-86
2021/08/29 03:15:25;;;;;;;;;;;12.40;99.90;;;;;;5117947;28;19924;-86
2021/08/29 03:17:52;;;;;;;;;;;12.30;99.90;;;;;;5118248;28;19935;-86
2021/08/29 03:20:19;;;;;;;;;;;12.30;99.90;;;;;;5118061;28;19935;-86
2021/08/29 03:22:46;;;;;;;;;;;12.30;99.90;;;;;;5117444;28;19927;-86
2021/08/29 03:25:13;;;;;;;;;;;12.30;99.90;;;;;;5117878;28;19924;-86
2021/08/29 03:27:40;;;;;;;;;;;12.30;99.90;;;;;;5117784;28;19924;-86
2021/08/29 03:30:09;;;;;;;;;;;12.30;99.90;;;;;;5117618;28;19930;-86
2021/08/29 03:32:36;;;;;;;;;;;12.30;99.90;;;;;;5117931;28;19930;-86
2021/08/29 03:35:04;;;;;;;;;;;12.20;99.90;;;;;;5117680;28;19924;-86
2021/08/29 03:37:31;;;;;;;;;;;12.20;99.90;;;;;;5117697;28;19934;-86
2021/08/29 03:39:58;;;;;;;;;;;12.20;99.90;;;;;;5117593;28;20358;-86
2021/08/29 03:42:25;;;;;;;;;;;12.20;99.90;;;;;;5117613;28;20340;-86
2021/08/29 03:44:52;;;;;;;;;;;12.20;99.90;;;;;;5117398;28;19924;-86
2021/08/29 03:47:20;;;;;;;;;;;12.20;99.90;;;;;;5117632;27;19928;-86
2021/08/29 03:49:48;;;;;;;;;;;12.10;99.90;;;;;;5117454;28;19924;-86
2021/08/29 03:52:14;;;;;;;;;;;12.10;99.90;;;;;;5117451;28;19923;-86
2021/08/29 03:54:42;;;;;;;;;;;12.10;99.90;;;;;;5117132;28;19924;-86
2021/08/29 03:57:09;;;;;;;;;;;12.10;99.90;;;;;;5117089;28;20401;-86
2021/08/29 03:59:36;;;;;;;;;;;12.10;99.90;;;;;;5117109;28;20412;-87
2021/08/29 04:02:04;;;;;;;;;;;12.00;99.90;;;;;;5117290;28;19938;-86
2021/08/29 04:04:32;;;;;;;;;;;12.00;99.90;;;;;;5117146;28;19923;-86
2021/08/29 04:06:59;;;;;;;;;;;12.00;99.90;;;;;;5117037;28;19924;-86
2021/08/29 04:09:26;;;;;;;;;;;12.00;99.90;;;;;;5116865;28;19923;-86
2021/08/29 04:11:53;;;;;;;;;;;12.00;99.90;;;;;;5116987;28;20340;-86
2021/08/29 04:14:20;;;;;;;;;;;12.00;99.90;;;;;;5116819;28;20354;-86
2021/08/29 04:16:47;;;;;;;;;;;12.00;99.90;;;;;;5116680;28;19930;-87
2021/08/29 04:19:14;;;;;;;;;;;11.90;99.90;;;;;;5116829;28;19924;-86
2021/08/29 04:21:42;;;;;;;;;;;11.90;99.90;;;;;;5116602;28;20271;-86
2021/08/29 04:24:10;;;;;;;;;;;11.90;99.90;;;;;;5116622;28;20371;-86
2021/08/29 04:26:37;;;;;;;;;;;11.80;99.90;;;;;;5116606;28;20263;-86
2021/08/29 04:29:04;;;;;;;;;;;11.90;99.90;;;;;;5116310;28;19930;-86
2021/08/29 04:31:32;;;;;;;;;;;11.80;99.90;;;;;;5116458;28;19930;-86
2021/08/29 04:34:01;;;;;;;;;;;11.80;99.90;;;;;;5115651;28;19928;-86
2021/08/29 04:36:29;;;;;;;;;;;11.80;99.90;;;;;;5116469;28;19924;-86
2021/08/29 04:38:57;;;;;;;;;;;11.80;99.90;;;;;;5116302;28;19928;-86
2021/08/29 04:41:24;;;;;;;;;;;11.80;99.90;;;;;;5116337;28;19925;-86
2021/08/29 04:43:51;;;;;;;;;;;11.80;99.90;;;;;;5116329;28;19924;-86
2021/08/29 04:46:18;;;;;;;;;;;11.80;99.90;;;;;;5116356;28;19924;-86
2021/08/29 04:48:45;;;;;;;;;;;11.80;99.90;;;;;;5116314;28;20378;-86
2021/08/29 04:51:11;;;;;;;;;;;11.70;99.90;;;;;;5116202;28;20374;-86
2021/08/29 04:53:38;;;;;;;;;;;11.70;99.90;;;;;;5116143;28;19923;-86
2021/08/29 04:56:06;;;;;;;;;;;11.70;99.90;;;;;;5115930;27;19924;-86
2021/08/29 04:58:33;;;;;;;;;;;11.60;99.90;;;;;;5116112;28;19928;-86
2021/08/29 05:01:00;;;;;;;;;;;11.60;99.90;;;;;;5116223;28;19924;-86
2021/08/29 05:03:27;;;;;;;;;;;11.60;99.90;;;;;;5115983;28;19924;-86
2021/08/29 05:05:54;;;;;;;;;;;11.60;99.90;;;;;;5115936;28;20332;-86
2021/08/29 05:08:21;;;;;;;;;;;11.60;99.90;;;;;;5115980;28;19924;-86
2021/08/29 05:10:47;;;;;;;;;;;11.60;99.90;;;;;;5115775;28;19923;-86
2021/08/29 05:13:16;;;;;;;;;;;11.60;99.90;;;;;;5115949;28;19924;-86
2021/08/29 05:15:42;;;;;;;;;;;11.60;99.90;;;;;;5115619;28;19935;-86
2021/08/29 05:18:09;;;;;;;;;;;11.60;99.90;;;;;;5115841;28;19924;-86
2021/08/29 05:20:36;;;;;;;;;;;11.50;99.90;;;;;;5115637;28;19924;-86
2021/08/29 05:23:03;;;;;;;;;;;11.60;99.90;;;;;;5115698;28;19934;-86
2021/08/29 05:25:30;;;;;;;;;;;11.60;99.90;;;;;;5115657;28;19924;-85
2021/08/29 05:27:58;;;;;;;;;;;11.60;99.90;;;;;;5115586;28;19924;-86
2021/08/29 05:30:26;;;;;;;;;;;11.60;99.90;;;;;;5115672;28;19923;-86
2021/08/29 05:32:53;;;;;;;;;;;11.60;99.90;;;;;;5115588;28;19935;-86
2021/08/29 05:35:19;;;;;;;;;;;11.50;99.90;;;;;;5115500;28;19934;-86
2021/08/29 05:37:46;;;;;;;;;;;11.50;99.90;;;;;;5115748;28;20010;-86
2021/08/29 05:40:13;;;;;;;;;;;11.50;99.90;;;;;;5115408;28;19939;-86
2021/08/29 05:42:40;;;;;;;;;;;11.50;99.90;;;;;;5115548;28;19934;-86
2021/08/29 05:45:07;;;;;;;;;;;11.60;99.90;;;;;;5116389;28;19924;-86
2021/08/29 05:47:36;;;;;;;;;;;11.60;99.90;;;;;;5120053;28;19931;-86
2021/08/29 05:50:03;;;;;;;;;;;11.70;99.90;;;;;;5119566;28;20279;-86
2021/08/29 05:52:29;;;;;;;;;;;11.70;99.90;;;;;;5119565;28;19934;-86
2021/08/29 05:54:56;;;;;;;;;;;11.70;99.90;;;;;;5119658;28;19924;-85
2021/08/29 05:57:23;;;;;;;;;;;11.70;99.90;;;;;;5119712;28;19934;-86
2021/08/29 05:59:50;;;;;;;;;;;11.80;99.90;;;;;;5119409;28;20369;-86
2021/08/29 06:02:17;;;;;;;;;;;11.80;99.90;;;;;;5119385;28;19935;-86
2021/08/29 06:04:45;;;;;;;;;;;11.90;99.90;;;;;;5119293;28;19923;-87
2021/08/29 06:07:12;;;;;;;;;;;12.00;99.90;;;;;;5119400;28;20344;-86
2021/08/29 06:09:38;;;;;;;;;;;12.10;99.90;;;;;;5119326;28;19930;-86
2021/08/29 06:12:06;;;;;;;;;;;12.20;99.90;;;;;;5119210;28;19935;-86
2021/08/29 06:14:33;;;;;;;;;;;12.30;99.90;;;;;;5119164;28;19935;-86
2021/08/29 06:16:59;;;;;;;;;;;12.50;99.90;;;;;;5119261;28;19923;-86
2021/08/29 06:19:26;;;;;;;;;;;12.60;99.90;;;;;;5119341;28;19930;-86
2021/08/29 06:21:54;;;;;;;;;;;12.70;99.90;;;;;;5119266;28;19927;-87
2021/08/29 06:24:21;;;;;;;;;;;12.70;99.90;;;;;;5119016;28;19934;-86
2021/08/29 06:26:48;;;;;;;;;;;12.80;99.90;;;;;;5119003;28;19931;-86
2021/08/29 06:29:18;;;;;;;;;;;12.90;99.90;;;;;;5118723;28;19928;-86
2021/08/29 06:31:45;;;;;;;;;;;12.90;99.90;;;;;;5118884;28;19924;-86
2021/08/29 06:34:13;;;;;;;;;;;13.00;99.90;;;;;;5119053;28;19934;-85
2021/08/29 06:36:44;;;;;;;;;;;13.00;99.90;;;;;;5118854;28;19924;-86
2021/08/29 06:39:13;;;;;;;;;;;13.10;99.90;;;;;;5118812;28;20337;-86
2021/08/29 06:41:41;;;;;;;;;;;13.10;99.90;;;;;;5118762;28;19924;-86
2021/08/29 06:44:08;;;;;;;;;;;13.20;99.90;;;;;;5118836;28;19950;-86
2021/08/29 06:46:35;;;;;;;;;;;13.20;99.90;;;;;;5118204;28;20339;-86
2021/08/29 06:49:02;;;;;;;;;;;13.30;99.90;;;;;;5118360;28;19928;-85
2021/08/29 06:51:29;;;;;;;;;;;13.30;99.90;;;;;;5118692;28;19924;-87
2021/08/29 06:53:55;;;;;;;;;;;13.40;99.90;;;;;;5118168;28;19924;-86
2021/08/29 06:56:24;;;;;;;;;;;13.40;99.90;;;;;;5117843;28;20351;-86
2021/08/29 06:58:50;;;;;;;;;;;13.50;99.90;;;;;;5117299;28;19934;-87
2021/08/29 07:01:17;;;;;;;;;;;13.50;99.90;;;;;;5118249;28;19934;-85
2021/08/29 07:03:44;;;;;;;;;;;13.50;99.90;;;;;;5118443;28;19934;-86
2021/08/29 07:06:11;;;;;;;;;;;13.60;99.90;;;;;;5118285;28;20356;-86
2021/08/29 07:08:38;;;;;;;;;;;13.70;99.90;;;;;;5118179;28;19924;-86
2021/08/29 07:11:05;;;;;;;;;;;13.70;99.90;;;;;;5118020;28;19923;-86
2021/08/29 07:13:34;;;;;;;;;;;13.80;99.90;;;;;;5118283;28;20271;-86
2021/08/29 07:16:02;;;;;;;;;;;13.90;99.90;;;;;;5118100;28;19924;-86
2021/08/29 07:18:30;;;;;;;;;;;14.00;99.90;;;;;;5118043;28;20336;-86
2021/08/29 07:20:57;;;;;;;;;;;14.20;99.90;;;;;;5117936;28;19938;-86
2021/08/29 07:23:28;;;;;;;;;;;14.70;99.90;;;;;;5117890;28;19934;-85
2021/08/29 07:25:56;;;;;;;;;;;15.80;99.90;;;;;;5117862;28;19992;-85
2021/08/29 07:28:24;;;;;;;;;;;17.60;99.90;;;;;;5117526;28;19931;-84
2021/08/29 07:30:52;;;;;;;5.95;2.38;;;19.60;99.90;;;;;;5117295;28;20394;-85
2021/08/29 07:33:21;;;;;;;3.40;1.70;;;21.30;99.90;;;;;;5117316;28;20064;-84
2021/08/29 07:35:51;;;;;;;6.25;2.00;;;22.50;99.90;;;;;;5117137;28;20039;-82
2021/08/29 07:38:19;;;;;;;5.93;1.98;;;23.20;99.90;;;;;;5117339;28;20057;-82
2021/08/29 07:40:46;;;;;;;3.60;1.67;;;24.10;98.90;;;;;;5117040;27;20055;-82
2021/08/29 07:43:16;;;;;;;3.05;1.25;;;24.20;94.50;;;;;;5116262;27;20486;-82
2021/08/29 07:45:44;;;;;;;4.22;1.67;;;23.40;94.30;;;;;;5116016;28;20043;-83
2021/08/29 07:48:14;;;;;;;4.55;1.75;;;22.10;98.80;;;;;;5116618;28;20054;-83
2021/08/29 07:50:42;;;;;;;;;;;20.70;99.90;;;;;;5116645;28;20044;-81
2021/08/29 07:53:09;;;;;;;;;;;19.50;99.90;;;;;;5116956;28;19924;-81
2021/08/29 07:55:37;;;;;;;;;;;18.80;99.90;;;;;;5116932;28;19950;-81
2021/08/29 07:58:05;;;;;;;;;;;18.20;99.90;;;;;;5116681;28;20094;-81
2021/08/29 08:00:35;;;;;;;;;;;17.70;99.90;;;;;;5116699;28;19924;-82
2021/08/29 08:03:03;;;;;;;;;;;17.30;99.90;;;;;;5116788;28;19923;-82
2021/08/29 08:05:34;;;;;;;;;;;17.00;99.90;;;;;;5116676;28;20019;-82
2021/08/29 08:08:02;;;;;;;;;;;16.70;99.90;;;;;;5116112;28;19924;-82
2021/08/29 08:10:33;;;;;;;;;;;16.50;99.90;;;;;;5115737;28;19924;-83
2021/08/29 08:13:01;;;;;;;;;;;16.40;99.90;;;;;;5116145;28;19931;-82
2021/08/29 08:15:30;;;;;;;;;;;16.30;99.90;;;;;;5116475;28;19935;-83
2021/08/29 08:17:59;;;;;;;;;;;16.20;99.90;;;;;;5116371;27;19934;-83
2021/08/29 08:20:27;;;;;;;;;;;16.20;99.90;;;;;;5116196;28;20006;-82
2021/08/29 08:22:56;;;;;;;;;;;16.00;99.90;;;;;;5116889;28;19924;-82
2021/08/29 08:25:31;;;;;;;;;;;15.90;99.90;;;;;;5116843;28;19924;-83
2021/08/29 08:28:00;;;;;;;;;;;15.90;99.90;;;;;;5116493;28;20092;-83
2021/08/29 08:30:28;;;;;;;;;;;15.80;99.90;;;;;;5116721;28;20015;-82
2021/08/29 08:32:56;;;;;;;;;;;15.70;99.90;;;;;;5116565;28;20243;-83
2021/08/29 08:35:25;;;;;;;;;;;15.70;99.90;;;;;;5116653;28;19949;-83
2021/08/29 08:37:54;;;;;;;;;;;15.60;99.90;;;;;;5116367;28;19924;-82
2021/08/29 08:40:28;;;;;;;;;;;15.60;99.90;;;;;;5116140;27;19924;-83
2021/08/29 08:42:56;;;;;;;;;;;15.60;99.90;;;;;;5116417;28;19927;-83
2021/08/29 08:45:27;;;;;;;;;;;15.50;99.90;;;;;;5116279;28;20351;-82
2021/08/29 08:47:55;;;;;;;;;;;15.50;99.90;;;;;;5116577;28;20040;-83
2021/08/29 08:50:23;;;;;;;;;;;15.50;99.90;;;;;;5116307;28;19930;-83
2021/08/29 08:52:52;;;;;;;;;;;15.40;99.90;;;;;;5116327;28;19924;-83
2021/08/29 08:55:20;;;;;;;;;;;15.40;99.90;;;;;;5116071;28;19935;-83
2021/08/29 08:57:49;;;;;;;;;;;15.40;99.90;;;;;;5116021;28;19924;-84
2021/08/29 09:00:17;;;;;;;;;;;15.50;99.90;;;;;;5115936;28;19923;-83
2021/08/29 09:02:46;;;;;;;;;;;15.60;99.90;;;;;;5115999;28;20271;-83
2021/08/29 09:05:14;;;;;;;;;;;15.60;99.90;;;;;;5116003;28;20274;-83
2021/08/29 09:07:42;;;;;;;;;;;15.70;99.90;;;;;;5115896;28;19924;-83
2021/08/29 09:10:11;;;;;;;;;;;15.90;99.90;;;;;;5115899;28;19928;-83
2021/08/29 09:12:37;;;;;;;;;;;16.00;99.90;;;;;;5115822;28;19923;-83
2021/08/29 09:15:06;;;;;;;;;;;16.10;99.90;;;;;;5116079;28;19934;-83
2021/08/29 09:17:33;;;;;;;;;;;16.10;99.90;;;;;;5115399;28;19924;-83
2021/08/29 09:20:17;;;;;;;;;;;16.20;99.90;;;;;;5115704;28;19934;-82
2021/08/29 09:22:44;;;;;;;;;;;16.30;99.90;;;;;;5115738;28;20243;-82
2021/08/29 09:25:14;;;;;;;;;;;16.40;99.90;;;;;;5115624;28;19924;-82
2021/08/29 09:27:42;;;;;;;;;;;16.40;99.90;;;;;;5115984;28;19941;-83
2021/08/29 09:30:11;;;;;;;;;;;16.40;99.90;;;;;;5115440;28;19924;-83
2021/08/29 09:32:46;;;;;;;;;;;16.40;99.90;;;;;;5114841;28;20447;-83
2021/08/29 09:35:13;;;;;;;;;;;16.40;99.90;;;;;;5115736;28;19923;-83
2021/08/29 09:37:40;;;;;;;;;;;16.40;99.90;;;;;;5114510;28;19924;-83
2021/08/29 09:40:13;;;;;;;;;;;16.30;99.90;;;;;;5115426;28;19934;-83
2021/08/29 09:42:41;;;;;;;;;;;16.30;99.90;;;;;;5115833;28;19953;-83
2021/08/29 09:45:08;;;;;;;;;;;16.30;99.90;;;;;;5115488;28;19924;-83
2021/08/29 09:47:36;;;;;;;;;;;16.30;99.90;;;;;;5115527;28;19927;-82
2021/08/29 09:50:04;;;;;;;;;;;16.30;99.90;;;;;;5115518;28;20355;-83
2021/08/29 09:52:31;;;;;;;;;;;16.30;99.90;;;;;;5115375;28;20340;-82
2021/08/29 09:54:58;;;;;;;;;;;16.30;99.90;;;;;;5115648;28;19924;-82
2021/08/29 09:57:25;;;;;;;;;;;16.40;99.90;;;;;;5115470;28;19931;-82
2021/08/29 09:59:51;;;;;;;;;;;16.60;99.90;;;;;;5115582;28;19923;-82
2021/08/29 10:02:19;;;;;;;;;;;16.60;99.90;;;;;;5115460;28;19934;-82
2021/08/29 10:04:47;;;;;;;;;;;16.70;99.90;;;;;;5115351;28;20382;-82
2021/08/29 10:07:14;;;;;;;;;;;16.80;99.90;;;;;;5115241;28;19932;-83
2021/08/29 10:09:41;;;;;;;;;;;16.60;99.90;;;;;;5115234;28;20373;-83
2021/08/29 10:12:08;;;;;;;;;;;16.60;99.90;;;;;;5115477;28;20259;-83
2021/08/29 10:14:39;;;;;;;;;;;16.70;99.90;;;;;;5115119;28;19935;-83
2021/08/29 10:17:06;;;;;;;;;;;16.80;99.90;;;;;;5115285;28;19934;-83
2021/08/29 10:19:34;;;;;;;;;;;17.00;99.90;;;;;;5115196;28;19924;-82
2021/08/29 10:22:03;;;;;;;;;;;17.20;99.90;;;;;;5115178;28;20340;-83
2021/08/29 10:24:30;;;;;;;;;;;17.30;99.90;;;;;;5115137;28;20371;-82
2021/08/29 10:26:57;;;;;;;;;;;17.40;99.90;;;;;;5115135;28;19939;-82
2021/08/29 10:29:24;;;;;;;;;;;17.40;99.90;;;;;;5115164;28;19995;-82
2021/08/29 10:31:53;;;;;;;;;;;17.30;99.90;;;;;;5115479;28;20378;-82
2021/08/29 10:34:20;;;;;;;;;;;17.30;99.90;;;;;;5118513;28;20736;-82
2021/08/29 10:36:47;;;;;;;;;;;17.20;99.90;;;;;;5118416;28;19938;-82
2021/08/29 10:39:15;;;;;;;;;;;17.10;99.90;;;;;;5118843;28;19924;-82
2021/08/29 10:41:42;;;;;;;;;;;17.20;99.90;;;;;;5117828;28;19935;-82
2021/08/29 10:44:09;;;;;;;;;;;17.20;99.90;;;;;;5118803;28;19924;-82
2021/08/29 10:46:36;;;;;;;;;;;17.30;99.90;;;;;;5118670;28;20240;-82
2021/08/29 10:49:03;;;;;;;;;;;17.30;99.90;;;;;;5118576;28;20340;-82
2021/08/29 10:51:29;;;;;;;;;;;17.30;99.90;;;;;;5118498;28;19930;-82
2021/08/29 10:53:57;;;;;;;;;;;17.30;99.90;;;;;;5118509;28;19927;-82
2021/08/29 10:56:35;;;;;;;;;;;17.20;99.90;;;;;;5118489;28;19923;-82
2021/08/29 10:59:21;;;;;;;;;;;17.10;99.90;;;;;;5118694;28;19951;-82
2021/08/29 11:01:48;;;;;;;;;;;17.10;99.90;;;;;;5118269;28;20352;-82
2021/08/29 11:04:33;;;;;;;;;;;17.00;99.90;;;;;;5118526;28;19924;-82
2021/08/29 11:07:02;;;;;;;;;;;17.10;99.90;;;;;;5118319;28;20353;-82
2021/08/29 11:09:50;;;;;;;;;;;17.20;99.90;;;;;;5118379;28;20347;-82
2021/08/29 11:12:33;;;;;;;;;;;17.20;99.90;;;;;;5114637;28;19928;-82
2021/08/29 11:15:00;;;;;;;;;;;17.30;99.90;;;;;;5118089;28;19935;-82
2021/08/29 11:17:27;;;;;;;;;;;17.40;99.90;;;;;;5118036;28;19931;-82
2021/08/29 11:19:54;;;;;;;;;;;17.40;99.90;;;;;;5118212;28;19924;-82
2021/08/29 11:22:23;;;;;;;;;;;17.40;99.90;;;;;;5117535;28;19931;-83
2021/08/29 11:25:05;;;;;;;;;;;17.30;99.90;;;;;;5118095;28;19924;-82
2021/08/29 11:27:51;;;;;;;;;;;17.30;99.90;;;;;;5118054;28;19924;-82
2021/08/29 11:30:21;;;;;;;;;;;17.40;99.90;;;;;;5117930;28;19981;-82
2021/08/29 11:32:53;;;;;;;;;;;17.30;99.90;;;;;;5117683;28;20346;-82
2021/08/29 11:35:25;;;;;;;;;;;17.30;99.90;;;;;;5117741;28;20259;-82
2021/08/29 11:38:11;;;;;;;;;;;17.40;99.90;;;;;;5135880;27;19923;-82
2021/08/29 11:40:56;;;;;;;;;;;17.40;99.90;;;;;;5137955;27;19980;-81
2021/08/29 11:43:30;;;;;;;;;;;17.50;99.90;;;;;;5137632;27;19923;-82
2021/08/29 11:46:01;;;;;;;;;;;17.50;99.90;;;;;;5138230;27;19927;-82
2021/08/29 11:48:30;;;;;;;;;;;17.60;99.90;;;;;;5138050;27;19931;-82
2021/08/29 11:50:58;;;;;;;;;;;17.60;99.90;;;;;;5137822;27;19938;-82
2021/08/29 11:53:27;;;;;;;;;;;17.60;99.90;;;;;;5137868;27;19923;-82
2021/08/29 11:55:55;;;;;;;;;;;17.60;99.90;;;;;;5137840;27;19923;-82
2021/08/29 11:58:23;;;;;;;;;;;17.60;99.90;;;;;;5137860;27;19971;-82
2021/08/29 12:00:52;;;;;;;;;;;17.70;99.90;;;;;;5137950;27;20021;-81
2021/08/29 12:03:25;;;;;;;;;;;17.70;99.90;;;;;;5137687;27;19958;-81
2021/08/29 12:06:02;;;;;;;;;;;17.90;99.90;;;;;;5137677;27;19933;-82
2021/08/29 12:08:32;;;;;;;;;;;18.10;99.90;;;;;;5137545;27;19934;-81
2021/08/29 12:11:00;;;;;;;;;;;18.20;99.90;;;;;;5137790;27;19935;-81
2021/08/29 12:13:32;;;;;;;;;;;18.20;99.90;;;;;;5137464;27;19931;-81
2021/08/29 12:16:05;;;;;;;;;;;18.30;99.90;;;;;;5137686;27;19938;-82
2021/08/29 12:18:46;;;;;;;;;;;18.30;99.90;;;;;;5137097;27;19924;-81
2021/08/29 12:21:15;;;;;;;;;;;18.20;99.90;;;;;;5137342;27;20303;-81
2021/08/29 12:23:43;;;;;;;;;;;18.20;99.90;;;;;;5121429;27;20364;-81
2021/08/29 12:26:19;;;;;;;;;;;18.20;99.90;;;;;;5116715;28;19971;-81
2021/08/29 12:28:59;;;;;;;;;;;18.10;99.90;;;;;;5116282;28;20020;-82
2021/08/29 12:31:27;;;;;;;;;;;18.10;99.90;;;;;;5116659;28;19923;-82
2021/08/29 12:33:59;;;;;;;;;;;18.20;99.90;;;;;;5116947;28;19923;-82
2021/08/29 12:36:28;;;;;;;;;;;18.20;99.90;;;;;;5116333;28;20344;-82
2021/08/29 12:38:59;;;;;;;;;;;18.20;99.90;;;;;;5116416;28;20348;-81
2021/08/29 12:41:27;;;;;;;;;;;18.20;99.90;;;;;;5116576;28;20314;-82
2021/08/29 12:44:05;;;;;;;;;;;18.20;99.90;;;;;;5116275;28;19923;-82
2021/08/29 12:46:33;;;;;;;;;;;18.30;99.90;;;;;;5116282;28;19932;-82
2021/08/29 12:49:03;;;;;;;;;;;18.40;99.90;;;;;;5116299;28;19923;-81
2021/08/29 12:51:33;;;;;;;;;;;18.40;99.90;;;;;;5116341;28;19975;-81
2021/08/29 12:54:01;;;;;;;;;;;18.40;99.90;;;;;;5116298;28;20366;-81
2021/08/29 12:56:32;;;;;;;;;;;18.40;99.90;;;;;;5115400;28;19935;-82
2021/08/29 12:59:01;;;;;;;;;;;18.40;99.90;;;;;;5113813;27;20026;-82
2021/08/29 13:01:29;;;;;;;;;;;18.30;99.90;;;;;;5116439;28;20270;-81
2021/08/29 13:04:00;;;;;;;;;;;18.20;99.90;;;;;;5116310;28;20246;-81
2021/08/29 13:06:33;;;;;;;;;;;18.20;99.90;;;;;;5116179;28;20336;-81
2021/08/29 13:09:07;;;;;;;;;;;18.20;99.90;;;;;;5115817;28;19934;-81
2021/08/29 13:11:43;;;;;;;;;;;18.20;99.90;;;;;;5116214;28;20252;-81
2021/08/29 13:14:11;;;;;;;;;;;18.30;99.90;;;;;;5116093;28;19924;-81
2021/08/29 13:16:39;;;;;;;;;;;18.30;99.90;;;;;;5115691;28;19927;-82
2021/08/29 13:19:10;;;;;;;;;;;18.40;99.90;;;;;;5115645;28;19934;-81
2021/08/29 13:21:40;;;;;;;;;;;18.40;99.90;;;;;;5115745;28;20002;-81
2021/08/29 13:24:27;;;;;;;;;;;18.50;99.90;;;;;;5115928;28;19924;-81
2021/08/29 13:26:54;;;;;;;;;;;18.50;99.90;;;;;;5115573;28;20003;-81
2021/08/29 13:29:23;;;;;;;;;;;18.50;99.90;;;;;;5113760;28;19924;-82
2021/08/29 13:31:55;;;;;;;;;;;18.40;99.90;;;;;;5115623;28;19924;-81
2021/08/29 13:34:27;;;;;;;;;;;18.40;99.90;;;;;;5115407;28;20030;-82
2021/08/29 13:36:57;;;;;;;;;;;18.40;99.90;;;;;;5115772;28;19928;-82
2021/08/29 13:39:26;;;;;;;;;;;18.30;99.90;;;;;;5115647;28;19924;-82
2021/08/29 13:42:07;;;;;;;;;;;18.30;99.90;;;;;;5115614;28;20343;-81
2021/08/29 13:44:35;;;;;;;;;;;18.20;99.90;;;;;;5115731;28;19923;-81
2021/08/29 13:47:03;;;;;;;;;;;18.20;99.90;;;;;;5115261;28;20000;-82
2021/08/29 13:49:31;;;;;;;;;;;18.20;99.90;;;;;;5115377;28;19924;-81
2021/08/29 13:52:01;;;;;;;;;;;18.30;99.90;;;;;;5115514;28;19924;-81
2021/08/29 13:54:29;;;;;;;;;;;18.40;99.90;;;;;;5115440;28;19961;-83
2021/08/29 13:56:57;;;;;;;;;;;18.30;99.90;;;;;;5115236;28;19971;-82
2021/08/29 13:59:28;;;;;;;;;;;18.20;99.90;;;;;;5115323;28;20370;-81
2021/08/29 14:01:57;;;;;;;;;;;18.20;99.90;;;;;;5115404;28;20023;-82
2021/08/29 14:04:25;;;;;;;;;;;18.20;99.90;;;;;;5115331;28;19930;-82
2021/08/29 14:06:53;;;;;;;;;;;18.20;99.90;;;;;;5117403;28;19931;-81
2021/08/29 14:09:21;;;;;;;;;;;18.20;99.90;;;;;;5119548;28;19931;-81
2021/08/29 14:11:49;;;;;;;;;;;18.20;99.90;;;;;;5119264;28;19924;-82
2021/08/29 14:14:18;;;;;;;;;;;18.20;99.90;;;;;;5119443;28;19924;-82
2021/08/29 14:16:45;;;;;;;;;;;18.20;99.90;;;;;;5119168;28;19928;-82
2021/08/29 14:19:13;;;;;;;;;;;18.20;99.90;;;;;;5119007;28;19924;-81
2021/08/29 14:21:41;;;;;;;;;;;18.20;99.90;;;;;;5119128;28;20323;-82